Time;durP1;ratioP1;P1;durP2;ratioP2;P2;SDS_P1;SDS_P2;PMS_P1;PMS_P2;Temp;Humidity;BMP_temperature;BMP_pressure;BME280_temperature;BME280_humidity;BME280_pressure;Samples;Min_cycle;Max_cycle;Signal;HPM_P1;HPM_P2
2024/04/11 00:00:08;;;;;;;5.15;2.50;;;4.00;99.90;;;;;;5449059;26;20479;-63
2024/04/11 00:02:54;;;;;;;8.48;2.40;;;4.00;99.90;;;;;;5417982;26;19995;-63
2024/04/11 00:05:41;;;;;;;6.47;2.10;;;4.00;99.90;;;;;;5399436;26;19995;-63
2024/04/11 00:08:27;;;;;;;6.55;3.00;;;4.00;99.90;;;;;;5403010;26;19991;-63
2024/04/11 00:11:13;;;;;;;6.05;2.95;;;4.10;99.90;;;;;;5393348;26;20521;-63
2024/04/11 00:13:59;;;;;;;6.47;2.55;;;4.10;99.90;;;;;;5409705;26;20426;-63
2024/04/11 00:16:45;;;;;;;5.20;1.80;;;4.10;99.90;;;;;;5406725;26;20455;-63
2024/04/11 00:19:31;;;;;;;5.20;1.93;;;4.20;99.90;;;;;;5386907;26;20001;-63
2024/04/11 00:22:17;;;;;;;5.75;1.95;;;4.20;99.90;;;;;;5391076;26;20210;-63
2024/04/11 00:25:03;;;;;;;7.43;2.55;;;4.20;99.90;;;;;;5393825;26;20057;-63
2024/04/11 00:27:49;;;;;;;5.73;2.13;;;4.20;99.90;;;;;;5386640;26;20022;-63
2024/04/11 00:30:35;;;;;;;6.53;2.13;;;4.30;99.90;;;;;;5383886;26;19996;-63
2024/04/11 00:33:21;;;;;;;;;;;4.40;99.90;;;;;;5388378;26;20004;-63
2024/04/11 00:36:11;;;;;;;5.63;1.75;;;4.40;99.90;;;;;;5396279;26;19932;-63
2024/04/11 00:38:57;;;;;;;6.25;1.50;;;4.60;99.90;;;;;;5386712;26;20094;-63
2024/04/11 00:41:43;;;;;;;5.90;1.88;;;4.60;99.90;;;;;;5396451;26;20225;-63
2024/04/11 00:44:32;;;;;;;5.60;1.80;;;4.70;99.90;;;;;;5376798;26;20001;-63
2024/04/11 00:47:18;;;;;;;4.57;1.75;;;4.80;99.90;;;;;;5403739;26;19999;-63
2024/04/11 00:50:05;;;;;;;7.57;1.60;;;4.90;99.90;;;;;;5394497;26;20060;-63
2024/04/11 00:52:51;;;;;;;6.00;1.65;;;4.90;99.90;;;;;;5381215;26;19992;-63
2024/04/11 00:55:37;;;;;;;5.32;1.77;;;5.00;99.90;;;;;;5386392;26;20008;-63
2024/04/11 00:58:25;;;;;;;3.95;2.10;;;5.10;99.90;;;;;;5386532;26;20059;-63
2024/04/11 01:01:10;;;;;;;4.47;1.88;;;5.10;99.90;;;;;;5391342;26;19996;-63
2024/04/11 01:03:59;;;;;;;5.93;1.80;;;5.30;99.90;;;;;;5393490;26;20000;-63
2024/04/11 01:09:52;;;;;;;3.60;1.13;;;5.40;99.90;;;;;;5387716;26;20091;-63
2024/04/11 01:12:38;;;;;;;5.13;1.65;;;5.40;99.90;;;;;;5384515;26;20878;-63
2024/04/11 01:15:23;;;;;;;9.38;2.15;;;5.40;99.90;;;;;;5377799;26;20077;-63
2024/04/11 01:18:09;;;;;;;6.78;1.75;;;5.40;99.90;;;;;;5402602;26;19999;-63
2024/04/11 01:20:58;;;;;;;5.45;2.15;;;5.40;99.90;;;;;;5389845;26;19991;-63
2024/04/11 01:23:44;;;;;;;4.55;1.30;;;5.40;99.90;;;;;;5399509;26;20001;-63
2024/04/11 01:26:30;;;;;;;2.85;1.25;;;5.40;99.90;;;;;;5388717;26;20005;-63
2024/04/11 01:29:16;;;;;;;6.28;1.38;;;5.40;99.90;;;;;;5391261;26;20004;-63
2024/04/11 01:32:05;;;;;;;4.25;1.48;;;5.40;99.90;;;;;;5395174;26;19996;-63
2024/04/11 01:34:56;;;;;;;5.35;1.85;;;5.40;99.90;;;;;;5384182;26;20012;-63
2024/04/11 01:37:42;;;;;;;4.75;1.40;;;5.40;99.90;;;;;;5390627;26;20003;-63
2024/04/11 01:40:31;;;;;;;4.82;1.30;;;5.40;99.90;;;;;;5380156;26;20010;-63
2024/04/11 01:43:17;;;;;;;5.50;1.65;;;5.40;99.90;;;;;;5395454;26;20015;-63
2024/04/11 01:46:03;;;;;;;4.78;1.45;;;5.40;99.90;;;;;;5392197;26;20010;-63
2024/04/11 01:48:49;;;;;;;8.35;1.65;;;5.40;99.90;;;;;;5395639;26;20003;-63
2024/04/11 01:51:35;;;;;;;6.53;1.80;;;5.40;99.90;;;;;;5393857;26;19995;-63
2024/04/11 01:54:21;;;;;;;7.72;1.55;;;5.60;99.90;;;;;;5386078;26;20021;-63
2024/04/11 01:57:08;;;;;;;6.22;1.30;;;5.60;99.90;;;;;;5388502;26;20008;-63
2024/04/11 01:59:55;;;;;;;6.93;1.45;;;5.70;99.90;;;;;;5377757;26;20686;-63
2024/04/11 02:02:49;;;;;;;4.07;1.30;;;5.70;99.90;;;;;;5401827;26;20009;-63
2024/04/11 02:05:35;;;;;;;4.03;1.30;;;5.70;99.90;;;;;;5397141;26;20735;-63
2024/04/11 02:08:21;;;;;;;3.95;1.40;;;5.70;99.90;;;;;;5394323;26;20007;-63
2024/04/11 02:11:07;;;;;;;2.93;1.90;;;5.70;99.90;;;;;;5391013;26;20074;-63
2024/04/11 02:13:53;;;;;;;3.45;1.52;;;5.80;99.90;;;;;;5400480;26;20036;-63
2024/04/11 02:16:39;;;;;;;9.80;1.50;;;5.80;99.90;;;;;;5390331;26;19996;-63
2024/04/11 02:19:26;;;;;;;3.28;1.38;;;5.80;99.90;;;;;;5377430;26;20008;-63
2024/04/11 02:22:13;;;;;;;;;;;5.80;99.90;;;;;;5396142;26;20440;-63
2024/04/11 02:24:58;;;;;;;6.25;1.70;;;5.80;99.90;;;;;;5395144;26;20181;-63
2024/04/11 02:27:44;;;;;;;3.85;1.00;;;5.80;99.90;;;;;;5391248;26;20007;-63
2024/04/11 02:30:30;;;;;;;6.38;1.73;;;5.80;99.90;;;;;;5385057;26;20027;-63
2024/04/11 02:33:16;;;;;;;7.72;1.67;;;5.70;99.90;;;;;;5397823;26;20907;-63
2024/04/11 02:36:06;;;;;;;4.28;1.13;;;5.70;99.90;;;;;;5390473;26;20008;-63
2024/04/11 02:38:52;;;;;;;8.13;1.35;;;5.70;99.90;;;;;;5395522;26;19991;-63
2024/04/11 02:41:38;;;;;;;5.07;2.03;;;5.70;99.90;;;;;;5386868;26;20014;-63
2024/04/11 02:44:24;;;;;;;4.78;1.17;;;5.60;99.90;;;;;;5384305;26;19995;-63
2024/04/11 02:47:10;;;;;;;8.47;1.70;;;5.60;99.90;;;;;;5396738;26;20011;-63
2024/04/11 02:49:56;;;;;;;8.05;1.60;;;5.60;99.90;;;;;;5377886;26;20008;-63
2024/04/11 02:52:43;;;;;;;7.00;1.77;;;5.60;99.90;;;;;;5394972;26;20540;-63
2024/04/11 02:55:31;;;;;;;7.55;1.92;;;5.60;99.90;;;;;;5388156;26;20003;-63
2024/04/11 02:58:17;;;;;;;3.60;1.27;;;5.60;99.90;;;;;;5403316;26;20022;-63
2024/04/11 03:01:09;;;;;;;4.40;1.92;;;5.60;99.90;;;;;;5378395;26;20646;-63
2024/04/11 03:03:56;;;;;;;4.90;1.40;;;5.60;99.90;;;;;;5392444;26;19996;-63
2024/04/11 03:06:43;;;;;;;2.63;1.40;;;5.60;99.90;;;;;;5394777;26;20011;-63
2024/04/11 03:09:29;;;;;;;6.22;1.50;;;5.60;99.90;;;;;;5386557;26;20762;-63
2024/04/11 03:12:15;;;;;;;6.13;1.40;;;5.60;99.90;;;;;;5388668;26;20012;-63
2024/04/11 03:15:03;;;;;;;3.40;1.27;;;5.60;99.90;;;;;;5380858;26;20395;-63
2024/04/11 03:17:51;;;;;;;6.53;1.73;;;5.60;99.90;;;;;;5390105;26;20007;-63
2024/04/11 03:20:37;;;;;;;8.13;1.33;;;5.60;99.90;;;;;;5390306;26;19999;-63
2024/04/11 03:23:24;;;;;;;3.87;1.27;;;5.60;99.90;;;;;;5391648;26;20009;-63
2024/04/11 03:26:10;;;;;;;6.82;1.50;;;5.50;99.90;;;;;;5384843;26;20018;-63
2024/04/11 03:28:56;;;;;;;5.63;1.25;;;5.50;99.90;;;;;;5395689;26;19991;-63
2024/04/11 03:31:45;;;;;;;3.75;1.58;;;5.50;99.90;;;;;;5386640;26;20771;-63
2024/04/11 03:34:31;;;;;;;3.30;1.20;;;5.50;99.90;;;;;;5373948;26;20050;-63
2024/04/11 03:37:17;;;;;;;10.50;2.22;;;5.40;99.90;;;;;;5400601;26;20015;-63
2024/04/11 03:40:03;;;;;;;7.13;1.60;;;5.40;99.90;;;;;;5387425;26;20010;-63
2024/04/11 03:42:50;;;;;;;6.90;1.33;;;5.30;99.90;;;;;;5396427;26;20007;-63
2024/04/11 03:45:36;;;;;;;5.40;1.38;;;5.40;99.90;;;;;;5392015;26;20000;-63
2024/04/11 03:48:21;;;;;;;6.82;1.20;;;5.30;99.90;;;;;;5384865;26;20027;-63
2024/04/11 03:51:14;;;;;;;7.15;1.73;;;5.40;99.90;;;;;;5385825;26;20463;-63
2024/04/11 03:54:00;;;;;;;5.75;1.45;;;5.30;99.90;;;;;;5405216;26;20011;-63
2024/04/11 03:56:46;;;;;;;9.27;1.60;;;5.40;99.90;;;;;;5401644;26;20537;-63
2024/04/11 03:59:32;;;;;;;5.80;1.15;;;5.30;99.90;;;;;;5378983;26;20047;-63
2024/04/11 04:02:18;;;;;;;4.25;1.42;;;5.40;99.90;;;;;;5384845;26;19991;-63
2024/04/11 04:05:07;;;;;;;2.15;0.90;;;5.30;99.90;;;;;;5387359;26;20499;-63
2024/04/11 04:07:52;;;;;;;4.65;1.30;;;5.30;99.90;;;;;;5394530;26;19995;-63
2024/04/11 04:10:38;;;;;;;9.60;1.75;;;5.40;99.90;;;;;;5393216;26;20000;-63
2024/04/11 04:13:26;;;;;;;3.30;1.30;;;5.40;99.90;;;;;;5395035;26;19995;-63
2024/04/11 04:16:14;;;;;;;5.00;1.42;;;5.30;99.90;;;;;;5391331;26;20555;-63
2024/04/11 04:19:00;;;;;;;5.32;1.15;;;5.40;99.90;;;;;;5396197;26;20000;-63
2024/04/11 04:21:46;;;;;;;4.15;1.10;;;5.40;99.90;;;;;;5390666;26;20016;-63
2024/04/11 04:24:32;;;;;;;4.35;1.20;;;5.40;99.90;;;;;;5387421;26;20345;-63
2024/04/11 04:27:17;;;;;;;8.25;1.63;;;5.40;99.90;;;;;;5391333;26;20953;-63
2024/04/11 04:30:09;;;;;;;4.88;1.08;;;5.50;99.90;;;;;;5392071;26;20085;-63
2024/04/11 04:32:55;;;;;;;3.30;1.17;;;5.50;99.90;;;;;;5429071;26;20570;-63
2024/04/11 04:35:43;;;;;;;6.57;1.80;;;5.50;99.90;;;;;;5424955;26;20764;-63
2024/04/11 04:38:29;;;;;;;3.50;0.85;;;5.50;99.90;;;;;;5428037;26;20121;-63
2024/04/11 04:41:19;;;;;;;8.38;0.93;;;5.50;99.90;;;;;;5423459;26;20002;-63
2024/04/11 04:44:05;;;;;;;5.25;1.15;;;5.60;99.90;;;;;;5433602;26;19999;-63
2024/04/11 04:46:53;;;;;;;3.05;0.90;;;5.60;99.90;;;;;;5435669;26;20010;-63
2024/04/11 04:49:39;;;;;;;7.88;1.48;;;5.70;99.90;;;;;;5418771;26;20039;-63
2024/04/11 04:52:25;;;;;;;4.55;1.13;;;5.80;99.90;;;;;;5421913;26;19991;-63
2024/04/11 04:55:10;;;;;;;4.57;1.53;;;5.90;99.90;;;;;;5421696;26;19995;-63
2024/04/11 04:57:57;;;;;;;8.23;0.98;;;6.00;99.90;;;;;;5428209;26;20316;-63
2024/04/11 05:00:43;;;;;;;4.28;1.00;;;6.10;99.90;;;;;;5417318;26;20397;-63
2024/04/11 05:03:33;;;;;;;3.88;1.10;;;6.30;99.90;;;;;;5426995;26;20011;-63
2024/04/11 05:06:19;;;;;;;6.22;0.98;;;6.40;99.90;;;;;;5422862;26;20673;-63
2024/04/11 05:09:10;;;;;;;4.95;1.13;;;7.00;99.90;;;;;;5424954;26;19995;-64
2024/04/11 05:11:57;;;;;;;3.40;0.90;;;7.60;99.90;;;;;;5427826;26;20024;-63
2024/04/11 05:14:45;;;;;;;6.13;1.13;;;7.90;99.90;;;;;;5424819;26;20039;-65
2024/04/11 05:17:32;;;;;;;3.78;1.00;;;7.90;99.90;;;;;;5436195;26;20244;-63
2024/04/11 05:20:21;;;;;;;6.43;1.20;;;8.20;99.90;;;;;;5419787;26;19995;-63
2024/04/11 05:23:07;;;;;;;2.45;0.93;;;9.30;99.90;;;;;;5434924;26;19995;-63
2024/04/11 05:25:52;;;;;;;7.20;1.30;;;9.60;99.90;;;;;;5428858;26;20056;-63
2024/04/11 05:28:42;;;;;;;10.02;1.60;;;10.30;99.90;;;;;;5426669;26;20008;-64
2024/04/11 05:31:28;;;;;;;5.53;1.20;;;11.30;97.80;;;;;;5422242;26;20003;-64
2024/04/11 05:34:16;;;;;;;4.50;1.03;;;11.40;99.50;;;;;;5429354;26;20009;-63
2024/04/11 05:37:03;;;;;;;5.20;0.98;;;10.90;98.80;;;;;;5432602;26;20009;-64
2024/04/11 05:39:49;;;;;;;4.32;1.05;;;10.70;99.40;;;;;;5423172;26;20018;-63
2024/04/11 05:42:35;;;;;;;2.90;0.90;;;10.30;99.90;;;;;;5428112;26;20027;-63
2024/04/11 05:45:24;;;;;;;5.05;1.15;;;10.00;99.90;;;;;;5427241;26;20025;-63
2024/04/11 05:48:10;;;;;;;3.72;1.17;;;9.60;99.90;;;;;;5421098;26;20071;-63
2024/04/11 05:50:56;;;;;;;5.22;1.52;;;9.30;99.90;;;;;;5420638;26;20011;-63
2024/04/11 05:53:42;;;;;;;5.75;1.75;;;9.20;99.90;;;;;;5432685;26;20002;-63
2024/04/11 05:56:28;;;;;;;3.53;1.20;;;9.10;99.90;;;;;;5423941;26;20014;-63
2024/04/11 05:59:14;;;;;;;3.97;0.80;;;9.20;99.90;;;;;;5428687;26;20071;-63
2024/04/11 06:02:00;;;;;;;8.77;1.65;;;9.30;99.90;;;;;;5388639;26;20010;-63
2024/04/11 06:04:46;;;;;;;6.07;1.47;;;9.30;99.90;;;;;;5390056;26;20000;-63
2024/04/11 06:07:32;;;;;;;7.15;1.05;;;9.30;99.90;;;;;;5390896;26;20019;-63
2024/04/11 06:10:20;;;;;;;7.78;1.55;;;9.50;99.90;;;;;;5389854;26;20007;-63
2024/04/11 06:13:06;;;;;;;3.95;1.02;;;9.70;99.90;;;;;;5399692;26;19995;-63
2024/04/11 06:15:52;;;;;;;4.57;1.20;;;10.00;99.90;;;;;;5378664;26;20003;-63
2024/04/11 06:18:38;;;;;;;2.08;0.90;;;10.50;99.90;;;;;;5393421;26;20013;-64
2024/04/11 06:21:32;;;;;;;8.45;1.02;;;10.90;99.90;;;;;;5380506;26;20040;-63
2024/04/11 06:24:18;;;;;;;3.47;1.00;;;10.80;99.50;;;;;;5392641;26;20601;-63
2024/04/11 06:27:05;;;;;;;3.40;1.07;;;10.70;99.90;;;;;;5386849;26;20622;-63
2024/04/11 06:29:52;;;;;;;7.18;1.08;;;10.60;99.90;;;;;;5383218;26;20000;-63
2024/04/11 06:32:38;;;;;;;4.78;1.10;;;10.70;99.90;;;;;;5393473;26;20011;-63
2024/04/11 06:35:27;;;;;;;4.27;1.33;;;10.70;99.90;;;;;;5378864;26;20004;-63
2024/04/11 06:38:14;;;;;;;9.90;1.30;;;10.70;99.90;;;;;;5389583;26;20320;-63
2024/04/11 06:41:02;;;;;;;5.28;1.15;;;10.70;99.90;;;;;;5390281;26;20018;-63
2024/04/11 06:43:50;;;;;;;5.97;1.20;;;10.60;99.90;;;;;;5399481;26;19996;-63
2024/04/11 06:46:37;;;;;;;3.97;1.10;;;10.40;99.90;;;;;;5391601;26;20000;-63
2024/04/11 06:49:22;;;;;;;4.93;1.00;;;10.40;99.90;;;;;;5388887;26;20542;-63
2024/04/11 06:52:12;;;;;;;6.75;1.52;;;10.30;99.90;;;;;;5379328;26;20076;-63
2024/04/11 06:54:58;;;;;;;9.68;1.55;;;10.30;99.90;;;;;;5387256;26;20036;-63
2024/04/11 06:57:45;;;;;;;6.72;1.10;;;10.40;99.90;;;;;;5394360;26;20032;-63
2024/04/11 07:00:37;;;;;;;15.13;12.35;;;10.40;99.90;;;;;;5385348;26;20114;-63
2024/04/11 07:03:26;;;;;;;6.57;1.70;;;10.60;99.90;;;;;;5387237;26;20344;-63
2024/04/11 07:06:22;;;;;;;3.28;1.10;;;10.70;99.90;;;;;;5392276;26;20004;-63
2024/04/11 07:09:11;;;;;;;7.00;1.25;;;10.70;99.90;;;;;;5393573;26;20011;-63
2024/04/11 07:11:58;;;;;;;6.00;1.23;;;10.60;99.90;;;;;;5392130;26;20024;-63
2024/04/11 07:14:44;;;;;;;8.20;1.70;;;10.70;99.90;;;;;;5391937;26;20004;-63
2024/04/11 07:17:30;;;;;;;7.32;1.65;;;10.70;99.90;;;;;;5400496;26;19995;-63
2024/04/11 07:20:25;;;;;;;3.85;1.25;;;10.80;99.90;;;;;;5384565;26;20000;-63
2024/04/11 07:23:11;;;;;;;5.63;1.23;;;11.00;99.90;;;;;;5397587;26;20004;-63
2024/04/11 07:25:57;;;;;;;4.40;1.13;;;11.10;99.90;;;;;;5389932;26;20034;-63
2024/04/11 07:28:45;;;;;;;4.90;1.40;;;11.10;99.90;;;;;;5390079;26;20000;-63
2024/04/11 07:31:35;;;;;;;6.15;1.30;;;11.30;99.90;;;;;;5406676;26;20007;-63
2024/04/11 07:34:22;;;;;;;4.18;1.27;;;11.60;99.90;;;;;;5436887;26;19999;-63
2024/04/11 07:37:09;;;;;;;8.02;2.33;;;11.80;99.90;;;;;;5428567;26;19995;-63
2024/04/11 07:39:55;;;;;;;5.38;1.13;;;11.90;99.90;;;;;;5429453;26;19999;-63
2024/04/11 07:42:55;;;;;;;8.25;1.23;;;12.00;99.90;;;;;;5436857;26;19998;-63
2024/04/11 07:45:41;;;;;;;6.97;1.20;;;12.00;99.90;;;;;;5417836;26;20014;-63
2024/04/11 07:48:31;;;;;;;10.15;1.10;;;11.90;99.90;;;;;;5424574;26;20903;-63
2024/04/11 07:51:19;;;;;;;7.15;1.08;;;11.80;99.90;;;;;;5424127;26;19995;-63
2024/04/11 07:54:05;;;;;;;9.75;1.30;;;11.70;99.90;;;;;;5439550;26;20778;-63
2024/04/11 07:56:50;;;;;;;11.10;1.45;;;11.70;99.90;;;;;;5434459;26;20009;-63
2024/04/11 07:59:37;;;;;;;4.15;1.08;;;11.70;99.90;;;;;;5421433;26;20011;-63
2024/04/11 08:02:23;;;;;;;4.32;1.08;;;11.70;99.90;;;;;;5430975;26;20074;-63
2024/04/11 08:05:09;;;;;;;4.82;1.27;;;11.70;99.90;;;;;;5429562;26;19999;-63
2024/04/11 08:07:57;;;;;;;10.10;1.55;;;11.70;99.90;;;;;;5413102;26;19995;-63
2024/04/11 08:10:47;;;;;;;4.72;1.10;;;11.70;99.90;;;;;;5416023;26;19996;-63
2024/04/11 08:13:33;;;;;;;12.07;1.20;;;11.70;99.90;;;;;;5420445;26;20010;-63
2024/04/11 08:16:19;;;;;;;6.03;1.50;;;11.60;99.90;;;;;;5418175;26;19996;-63
2024/04/11 08:19:09;;;;;;;8.23;1.50;;;11.60;99.90;;;;;;5433904;26;20048;-64
2024/04/11 08:21:55;;;;;;;5.55;1.23;;;11.60;99.90;;;;;;5414594;26;20483;-66
2024/04/11 08:24:43;;;;;;;8.40;1.20;;;11.50;99.90;;;;;;5428984;26;20382;-66
2024/04/11 08:27:28;;;;;;;6.00;1.13;;;11.50;99.90;;;;;;5412856;26;19999;-63
2024/04/11 08:30:17;;;;;;;6.68;1.05;;;11.50;99.90;;;;;;5418078;26;19996;-63
2024/04/11 08:33:09;;;;;;;8.13;1.60;;;11.40;99.90;;;;;;5418781;26;19998;-63
2024/04/11 08:35:57;;;;;;;5.72;1.10;;;11.40;99.90;;;;;;5421111;26;19999;-64
2024/04/11 08:38:43;;;;;;;14.10;1.77;;;11.40;99.90;;;;;;5430406;26;20000;-64
2024/04/11 08:41:28;;;;;;;12.60;1.27;;;11.40;99.90;;;;;;5420158;26;19995;-64
2024/04/11 08:44:15;;;;;;;8.27;1.60;;;11.40;99.90;;;;;;5426315;26;19994;-64
2024/04/11 08:47:01;;;;;;;4.95;1.10;;;11.40;99.90;;;;;;5429115;26;20012;-63
2024/04/11 08:49:47;;;;;;;4.32;1.20;;;11.40;99.90;;;;;;5428423;26;20606;-64
2024/04/11 08:52:36;;;;;;;5.32;1.27;;;11.50;99.90;;;;;;5424766;26;20013;-64
2024/04/11 08:55:22;;;;;;;7.10;1.50;;;11.40;99.90;;;;;;5418843;26;20002;-64
2024/04/11 08:58:08;;;;;;;5.23;1.37;;;11.50;99.90;;;;;;5434398;26;20011;-63
2024/04/11 09:00:57;;;;;;;10.20;1.40;;;11.60;99.90;;;;;;5426516;26;20003;-63
2024/04/11 09:03:47;;;;;;;4.50;1.20;;;11.60;99.90;;;;;;5429713;26;20003;-63
2024/04/11 09:06:33;;;;;;;9.15;1.15;;;11.70;99.90;;;;;;5432634;26;20007;-63
2024/04/11 09:09:23;;;;;;;7.20;1.60;;;11.70;99.90;;;;;;5410678;26;20007;-63
2024/04/11 09:12:11;;;;;;;7.45;1.00;;;11.70;99.90;;;;;;5422221;26;20739;-63
2024/04/11 09:14:57;;;;;;;7.88;1.67;;;11.70;99.90;;;;;;5397393;26;20036;-63
2024/04/11 09:17:44;;;;;;;12.43;1.70;;;11.70;99.90;;;;;;5427266;26;19999;-62
2024/04/11 09:20:32;;;;;;;10.07;1.50;;;11.70;99.90;;;;;;5418918;26;20030;-64
2024/04/11 09:23:21;;;;;;;18.20;1.77;;;11.80;99.90;;;;;;5410382;26;20014;-62
2024/04/11 09:26:07;;;;;;;11.63;2.13;;;11.80;99.90;;;;;;5413815;26;20270;-63
2024/04/11 09:28:54;;;;;;;7.10;1.40;;;11.80;99.90;;;;;;5409448;26;20006;-63
2024/04/11 09:31:40;;;;;;;8.55;1.83;;;11.80;99.90;;;;;;5429076;26;20022;-63
2024/04/11 09:34:30;;;;;;;7.18;1.30;;;11.80;99.90;;;;;;5404090;26;20007;-63
2024/04/11 09:37:23;;;;;;;5.28;1.13;;;11.90;99.90;;;;;;5405357;26;20003;-63
2024/04/11 09:40:19;;;;;;;4.32;1.10;;;11.90;99.90;;;;;;5422778;26;20042;-63
2024/04/11 09:43:06;;;;;;;7.93;1.67;;;12.00;99.90;;;;;;5420027;26;19998;-63
2024/04/11 09:45:56;;;;;;;6.80;1.40;;;12.00;99.90;;;;;;5422869;26;20046;-63
2024/04/11 09:48:44;;;;;;;7.05;1.50;;;12.00;99.90;;;;;;5417310;26;20816;-63
2024/04/11 09:51:32;;;;;;;5.60;1.20;;;12.10;99.90;;;;;;5414051;26;20356;-63
2024/04/11 09:54:19;;;;;;;8.93;1.42;;;12.10;99.90;;;;;;5423883;26;20036;-63
2024/04/11 09:57:06;;;;;;;5.82;1.20;;;12.20;99.90;;;;;;5415516;26;19999;-63
2024/04/11 09:59:55;;;;;;;6.60;1.20;;;12.20;99.90;;;;;;5417437;26;20083;-63
2024/04/11 10:02:41;;;;;;;7.28;1.63;;;12.30;99.90;;;;;;5402192;26;20336;-63
2024/04/11 10:05:40;;;;;;;5.63;1.17;;;12.30;99.90;;;;;;5396293;26;20015;-63
2024/04/11 10:08:36;;;;;;;8.68;1.30;;;12.30;99.90;;;;;;5400615;26;20032;-66
2024/04/11 10:11:22;;;;;;;8.10;1.83;;;12.30;99.90;;;;;;5399144;26;20015;-66
2024/04/11 10:14:20;;;;;;;5.20;1.05;;;12.40;99.90;;;;;;5399715;26;20344;-65
2024/04/11 10:17:05;;;;;;;4.95;1.25;;;12.40;99.90;;;;;;5403787;26;20003;-64
2024/04/11 10:19:53;;;;;;;4.75;1.27;;;12.50;99.90;;;;;;5386015;26;20019;-67
2024/04/11 10:22:47;;;;;;;7.80;1.58;;;12.50;99.90;;;;;;5395435;26;19999;-65
2024/04/11 10:25:37;;;;;;;3.65;1.02;;;12.60;99.90;;;;;;5405456;26;20058;-65
2024/04/11 10:28:41;;;;;;;6.60;1.17;;;12.60;99.90;;;;;;5396654;26;20007;-63
2024/04/11 10:31:32;;;;;;;6.47;1.23;;;12.70;99.90;;;;;;5400838;26;20004;-63
2024/04/11 10:34:25;;;;;;;8.20;1.15;;;12.80;99.90;;;;;;5400608;26;20043;-63
2024/04/11 10:37:14;;;;;;;3.85;1.20;;;12.80;99.90;;;;;;5397174;26;20065;-63
2024/04/11 10:40:00;;;;;;;4.18;1.35;;;12.90;99.90;;;;;;5398272;26;19996;-62
2024/04/11 10:43:32;;;;;;;3.30;1.20;;;12.80;99.90;;;;;;5402954;26;20014;-62
2024/04/11 10:45:55;;;;;;;6.70;1.27;;;12.70;99.90;;;;;;5400296;26;20018;-62
2024/04/11 10:48:44;;;;;;;6.03;1.27;;;12.90;99.90;;;;;;5400484;26;19996;-62
2024/04/11 10:51:30;;;;;;;6.97;1.50;;;12.90;99.90;;;;;;5396829;26;20142;-61
2024/04/11 10:54:17;;;;;;;5.63;1.35;;;12.90;99.90;;;;;;5397454;26;20003;-62
2024/04/11 10:57:04;;;;;;;4.55;1.05;;;12.80;99.90;;;;;;5394000;26;20007;-62
2024/04/11 10:59:50;;;;;;;5.10;1.02;;;12.90;99.90;;;;;;5394133;26;19995;-62
2024/04/11 11:02:39;;;;;;;5.15;1.27;;;12.90;99.90;;;;;;5398463;26;20004;-61
2024/04/11 11:05:27;;;;;;;7.40;1.38;;;12.90;99.90;;;;;;5394266;26;20449;-61
2024/04/11 11:08:13;;;;;;;5.40;0.98;;;13.00;99.90;;;;;;5393583;26;19999;-62
2024/04/11 11:10:59;;;;;;;8.35;1.70;;;13.00;99.90;;;;;;5393333;26;20004;-62
2024/04/11 11:13:47;;;;;;;2.33;1.10;;;13.00;99.90;;;;;;5391886;26;20008;-62
2024/04/11 11:16:33;;;;;;;4.43;1.30;;;13.10;99.90;;;;;;5394897;26;20457;-62
2024/04/11 11:19:20;;;;;;;3.03;0.95;;;13.20;99.90;;;;;;5401744;26;20008;-62
2024/04/11 11:22:06;;;;;;;4.88;0.98;;;13.40;99.90;;;;;;5399192;26;20420;-62
2024/04/11 11:24:53;;;;;;;4.38;1.23;;;13.50;99.90;;;;;;5386392;26;20018;-62
2024/04/11 11:27:38;;;;;;;4.95;1.38;;;13.60;99.90;;;;;;5387420;26;20066;-62
2024/04/11 11:30:31;;;;;;;8.63;1.30;;;13.60;99.90;;;;;;5385881;26;20543;-62
2024/04/11 11:33:17;;;;;;;2.30;1.00;;;13.70;99.90;;;;;;5387377;26;20810;-62
2024/04/11 11:36:04;;;;;;;8.80;1.38;;;13.80;99.90;;;;;;5384845;26;20000;-62
2024/04/11 11:38:54;;;;;;;;;;;14.00;99.90;;;;;;5394312;26;19991;-62
2024/04/11 11:41:47;;;;;;;6.00;1.20;;;14.10;99.90;;;;;;5397457;26;19984;-62
2024/04/11 11:44:41;;;;;;;5.32;1.02;;;14.10;99.90;;;;;;5401357;26;20008;-62
2024/04/11 11:47:33;;;;;;;2.47;0.88;;;14.20;99.90;;;;;;5392997;26;20267;-62
2024/04/11 11:50:21;;;;;;;2.95;0.80;;;14.40;99.90;;;;;;5398094;26;20052;-62
2024/04/11 11:53:25;;;;;;;3.38;0.65;;;14.50;99.90;;;;;;5401004;26;20013;-62
2024/04/11 11:56:14;;;;;;;5.63;1.48;;;14.60;99.90;;;;;;5399002;26;20037;-62
2024/04/11 11:59:02;;;;;;;3.08;1.00;;;14.90;99.90;;;;;;5403415;26;19999;-62
2024/04/11 12:01:51;;;;;;;4.82;1.27;;;15.10;99.90;;;;;;5397794;26;20071;-62
2024/04/11 12:04:38;;;;;;;2.90;0.95;;;15.40;99.90;;;;;;5401473;26;20011;-62
2024/04/11 12:07:24;;;;;;;4.82;1.02;;;15.40;99.90;;;;;;5395436;26;20014;-62
2024/04/11 12:10:13;;;;;;;3.30;1.00;;;15.40;99.90;;;;;;5400031;26;20007;-62
2024/04/11 12:13:18;;;;;;;5.72;0.82;;;15.60;99.90;;;;;;5401475;26;20000;-62
2024/04/11 12:16:04;;;;;;;3.92;1.08;;;15.50;99.90;;;;;;5400748;26;20000;-62
2024/04/11 12:18:51;;;;;;;3.03;0.95;;;15.30;99.90;;;;;;5404880;26;19995;-62
2024/04/11 12:21:44;;;;;;;5.70;1.35;;;15.30;99.90;;;;;;5402600;26;20500;-62
2024/04/11 12:24:31;;;;;;;4.65;0.70;;;15.30;99.90;;;;;;5404031;26;20444;-62
2024/04/11 12:27:21;;;;;;;2.53;0.80;;;15.20;99.90;;;;;;5406273;26;20008;-62
2024/04/11 12:30:07;;;;;;;4.95;0.85;;;15.10;99.90;;;;;;5402594;26;20007;-62
2024/04/11 12:32:54;;;;;;;4.35;1.25;;;15.10;99.90;;;;;;5390976;26;20036;-62
2024/04/11 12:35:54;;;;;;;;;;;15.00;99.90;;;;;;5403600;26;20071;-62
2024/04/11 12:38:40;;;;;;;3.63;0.80;;;14.80;99.90;;;;;;5399254;26;19941;-62
2024/04/11 12:41:26;;;;;;;3.80;0.80;;;14.90;99.90;;;;;;5399793;26;20070;-62
2024/04/11 12:44:12;;;;;;;3.57;0.97;;;14.90;99.90;;;;;;5401112;26;19996;-62
2024/04/11 12:47:00;;;;;;;3.30;0.75;;;15.00;99.90;;;;;;5397897;26;20257;-62
2024/04/11 12:49:49;;;;;;;2.75;0.60;;;15.00;99.90;;;;;;5404356;26;20539;-62
2024/04/11 12:52:40;;;;;;;2.78;0.75;;;15.10;99.90;;;;;;5387387;26;20102;-62
2024/04/11 12:55:26;;;;;;;2.38;0.73;;;15.20;99.90;;;;;;5388065;26;20007;-62
2024/04/11 12:58:14;;;;;;;2.47;0.60;;;15.30;99.90;;;;;;5403752;26;20068;-62
2024/04/11 13:03:52;;;;;;;2.50;0.60;;;15.20;99.90;;;;;;5324285;26;20427;-60
2024/04/11 13:06:48;;;;;;;1.55;0.50;;;15.20;99.90;;;;;;5330853;26;20012;-60
2024/04/11 13:09:35;;;;;;;5.20;0.80;;;15.20;99.90;;;;;;5327749;26;20160;-62
2024/04/11 13:12:22;;;;;;;3.75;0.90;;;15.00;99.90;;;;;;5311835;26;20487;-62
2024/04/11 13:15:08;;;;;;;2.50;0.80;;;15.00;99.90;;;;;;5330639;26;20011;-61
2024/04/11 13:17:57;;;;;;;1.85;0.50;;;14.90;99.90;;;;;;5330927;26;20014;-61
2024/04/11 13:20:48;;;;;;;4.50;0.80;;;14.90;99.90;;;;;;5331396;26;20468;-63
2024/04/11 13:23:34;;;;;;;2.92;0.60;;;14.90;99.90;;;;;;5334478;26;20667;-61
2024/04/11 13:26:23;;;;;;;1.92;0.70;;;14.90;99.90;;;;;;5328017;26;20025;-61
2024/04/11 13:29:08;;;;;;;3.33;0.80;;;14.80;99.90;;;;;;5332294;26;19997;-63
2024/04/11 13:31:57;;;;;;;6.20;0.93;;;14.70;99.90;;;;;;5329333;26;20009;-64
2024/04/11 13:37:48;;;;;;;2.65;0.68;;;14.70;99.90;;;;;;5333012;26;20001;-60
2024/04/11 13:43:20;;;;;;;2.90;0.40;;;14.70;99.90;;;;;;5332338;26;20016;-60
2024/04/11 13:46:07;;;;;;;2.40;0.80;;;14.80;99.90;;;;;;5330866;26;20070;-60
2024/04/11 13:48:52;;;;;;;0.93;0.30;;;14.90;99.90;;;;;;5332516;26;20005;-60
2024/04/11 13:51:44;;;;;;;3.67;0.75;;;15.00;99.90;;;;;;5329666;26;20005;-60
2024/04/11 13:54:31;;;;;;;6.43;1.13;;;15.00;99.90;;;;;;5332365;26;20004;-60
2024/04/11 13:57:23;;;;;;;2.75;1.08;;;14.90;99.90;;;;;;5330509;26;20033;-60
2024/04/11 14:00:10;;;;;;;4.00;0.63;;;14.90;99.90;;;;;;5333593;26;20019;-59
2024/04/11 14:02:58;;;;;;;;;;;15.00;99.90;;;;;;5327811;26;20376;-60
2024/04/11 14:05:59;;;;;;;2.47;0.52;;;14.90;99.90;;;;;;5326497;26;19926;-60
2024/04/11 14:08:45;;;;;;;3.13;0.60;;;15.00;99.90;;;;;;5333313;26;20001;-60
2024/04/11 14:11:34;;;;;;;1.97;0.37;;;15.10;99.90;;;;;;5324909;26;20063;-60
2024/04/11 14:14:26;;;;;;;1.77;0.57;;;15.20;99.90;;;;;;5331188;26;20464;-61
2024/04/11 14:17:22;;;;;;;3.65;0.40;;;15.20;99.90;;;;;;5329044;26;20074;-61
2024/04/11 14:20:19;;;;;;;2.67;0.50;;;15.30;99.90;;;;;;5328471;26;20362;-61
2024/04/11 14:26:10;;;;;;;1.70;0.60;;;15.30;99.90;;;;;;5330328;26;20013;-60
2024/04/11 14:28:56;;;;;;;7.35;1.88;;;15.30;99.90;;;;;;5329379;26;20001;-61
2024/04/11 14:31:49;;;;;;;4.50;0.85;;;15.40;99.90;;;;;;5319665;26;20708;-60
2024/04/11 14:40:12;;;;;;;1.35;0.80;;;15.10;99.90;;;;;;5331126;26;20029;-60
2024/04/11 14:43:00;;;;;;;2.10;0.50;;;15.20;99.90;;;;;;5332503;26;19997;-60
2024/04/11 14:45:46;;;;;;;3.67;0.70;;;15.10;99.90;;;;;;5332908;26;20239;-59
2024/04/11 14:48:36;;;;;;;2.30;0.57;;;15.10;99.90;;;;;;5331241;26;20015;-60
2024/04/11 14:51:26;;;;;;;1.42;0.40;;;15.10;99.90;;;;;;5325809;26;20001;-60
2024/04/11 14:54:25;;;;;;;2.45;0.70;;;15.10;99.90;;;;;;5331653;26;20001;-61
2024/04/11 14:57:12;;;;;;;4.35;1.15;;;15.00;99.90;;;;;;5331563;26;20001;-60
2024/04/11 14:59:58;;;;;;;2.35;0.70;;;14.90;99.90;;;;;;5335069;26;20087;-60